SAS69K ESGG-EDDH
Flight info
| Callsign | SAS69K |
|---|---|
| Flight time | 1h 15m |
| Altitude | 38000 |
| Route | VADIN3J VADIN DCT ALASA/N0424F370 M852 EKERN/N0346F230 T905 BOGMU BOGMU5A |
| Aircraft | A20N/M-SDE2E3FGHIRWXY/LB1 |
Departure
| Time | 2026-04-30 19:33 |
|---|---|
| Airport | Göteborg Landvetter Airport (ESGG) |
Arrival
| Time | 2026-04-30 20:49 |
|---|---|
| Airport | Hamburg Helmut Schmidt Airport (EDDH) |
| Time | Latitude | Longitude | Altitude | Speed | Heading |
|---|---|---|---|---|---|
| 2026-04-30 18:49 | 57.67009 | 12.29525 | 511 ft | 0 kts | 116° |
| 2026-04-30 19:21 | 57.67033 | 12.29439 | 511 ft | 2 kts | 136° |
| 2026-04-30 19:22 | 57.67054 | 12.29425 | 511 ft | 2 kts | 194° |
| 2026-04-30 19:22 | 57.67075 | 12.29440 | 511 ft | 0 kts | 205° |
| 2026-04-30 19:24 | 57.67055 | 12.29421 | 511 ft | 8 kts | 206° |
| 2026-04-30 19:25 | 57.67134 | 12.29268 | 511 ft | 21 kts | 26° |
| 2026-04-30 19:26 | 57.67385 | 12.29479 | 514 ft | 13 kts | 356° |
| 2026-04-30 19:26 | 57.67460 | 12.29250 | 513 ft | 0 kts | 274° |
| 2026-04-30 19:32 | 57.67460 | 12.29187 | 513 ft | 11 kts | 266° |
| 2026-04-30 19:32 | 57.67415 | 12.29009 | 512 ft | 18 kts | 218° |
| 2026-04-30 19:32 | 57.67280 | 12.28884 | 512 ft | 39 kts | 206° |
| 2026-04-30 19:33 | 57.66819 | 12.28462 | 506 ft | 107 kts | 206° |
| 2026-04-30 19:33 | 57.65995 | 12.27698 | 575 ft | 149 kts | 206° |
| 2026-04-30 19:33 | 57.65075 | 12.26856 | 1170 ft | 157 kts | 208° |
| 2026-04-30 19:33 | 57.63970 | 12.25835 | 1727 ft | 193 kts | 210° |
| 2026-04-30 19:34 | 57.62673 | 12.24598 | 2424 ft | 224 kts | 211° |
| 2026-04-30 19:34 | 57.61195 | 12.23197 | 3205 ft | 253 kts | 209° |
| 2026-04-30 19:34 | 57.57690 | 12.20660 | 4708 ft | 274 kts | 183° |
| 2026-04-30 19:35 | 57.55769 | 12.21084 | 5464 ft | 281 kts | 171° |
| 2026-04-30 19:35 | 57.53817 | 12.21475 | 6220 ft | 283 kts | 178° |
| 2026-04-30 19:35 | 57.51832 | 12.21500 | 6984 ft | 287 kts | 182° |
| 2026-04-30 19:35 | 57.49829 | 12.21300 | 7701 ft | 289 kts | 185° |
| 2026-04-30 19:36 | 57.47842 | 12.20968 | 8439 ft | 292 kts | 186° |
| 2026-04-30 19:36 | 57.45813 | 12.20562 | 9200 ft | 295 kts | 187° |
| 2026-04-30 19:36 | 57.42144 | 12.17344 | 10730 ft | 302 kts | 226° |
| 2026-04-30 19:37 | 57.40662 | 12.14472 | 11471 ft | 313 kts | 227° |
| 2026-04-30 19:37 | 57.39137 | 12.11472 | 12109 ft | 328 kts | 227° |
| 2026-04-30 19:37 | 57.37514 | 12.08332 | 12617 ft | 346 kts | 226° |
| 2026-04-30 19:37 | 57.35792 | 12.05061 | 13135 ft | 359 kts | 226° |
| 2026-04-30 19:38 | 57.33991 | 12.01678 | 13668 ft | 363 kts | 226° |
| 2026-04-30 19:38 | 57.32243 | 11.98414 | 14186 ft | 366 kts | 225° |
| 2026-04-30 19:38 | 57.30437 | 11.95051 | 14663 ft | 369 kts | 225° |
| 2026-04-30 19:38 | 57.28621 | 11.91674 | 15144 ft | 371 kts | 226° |
| 2026-04-30 19:39 | 57.26788 | 11.88269 | 15635 ft | 374 kts | 226° |
| 2026-04-30 19:39 | 57.24973 | 11.84899 | 16133 ft | 377 kts | 226° |
| 2026-04-30 19:39 | 57.23118 | 11.81458 | 16619 ft | 379 kts | 226° |
| 2026-04-30 19:39 | 57.21253 | 11.78004 | 17139 ft | 382 kts | 226° |
| 2026-04-30 19:40 | 57.19367 | 11.74514 | 17660 ft | 385 kts | 226° |
| 2026-04-30 19:40 | 57.17469 | 11.71006 | 18196 ft | 388 kts | 226° |
| 2026-04-30 19:40 | 57.15535 | 11.67512 | 18728 ft | 391 kts | 223° |
| 2026-04-30 19:40 | 57.13363 | 11.64445 | 19201 ft | 395 kts | 213° |
| 2026-04-30 19:41 | 57.10967 | 11.62034 | 19675 ft | 400 kts | 204° |
| 2026-04-30 19:41 | 57.08347 | 11.60064 | 20158 ft | 403 kts | 202° |
| 2026-04-30 19:41 | 57.05765 | 11.58182 | 20648 ft | 406 kts | 202° |
| 2026-04-30 19:41 | 57.03100 | 11.56216 | 21158 ft | 409 kts | 202° |
| 2026-04-30 19:42 | 57.00484 | 11.54246 | 21681 ft | 413 kts | 204° |
| 2026-04-30 19:42 | 56.97827 | 11.52194 | 22184 ft | 416 kts | 202° |
| 2026-04-30 19:42 | 56.95128 | 11.50218 | 22718 ft | 420 kts | 202° |
| 2026-04-30 19:42 | 56.92400 | 11.48226 | 23255 ft | 423 kts | 202° |
| 2026-04-30 19:43 | 56.89658 | 11.46194 | 23807 ft | 427 kts | 203° |
| 2026-04-30 19:43 | 56.86895 | 11.44120 | 24304 ft | 431 kts | 203° |
| 2026-04-30 19:43 | 56.84117 | 11.42018 | 24773 ft | 433 kts | 203° |
| 2026-04-30 19:44 | 56.78506 | 11.37758 | 25745 ft | 439 kts | 203° |
| 2026-04-30 19:44 | 56.75679 | 11.35615 | 26240 ft | 442 kts | 203° |
| 2026-04-30 19:44 | 56.72831 | 11.33461 | 26742 ft | 445 kts | 203° |
| 2026-04-30 19:44 | 56.69969 | 11.31302 | 27255 ft | 447 kts | 203° |
| 2026-04-30 19:45 | 56.67090 | 11.29134 | 27779 ft | 448 kts | 203° |
| 2026-04-30 19:45 | 56.64206 | 11.26966 | 28313 ft | 449 kts | 203° |
| 2026-04-30 19:45 | 56.61320 | 11.24802 | 28856 ft | 449 kts | 203° |
| 2026-04-30 19:45 | 56.58422 | 11.22632 | 29412 ft | 449 kts | 203° |
| 2026-04-30 19:46 | 56.55533 | 11.20472 | 29978 ft | 448 kts | 203° |
| 2026-04-30 19:46 | 56.52650 | 11.18321 | 30545 ft | 448 kts | 203° |
| 2026-04-30 19:46 | 56.49776 | 11.16179 | 31022 ft | 447 kts | 203° |
| 2026-04-30 19:46 | 56.46942 | 11.14072 | 31520 ft | 445 kts | 203° |
| 2026-04-30 19:47 | 56.44082 | 11.11948 | 32029 ft | 444 kts | 203° |
| 2026-04-30 19:47 | 56.42154 | 11.10518 | 32380 ft | 442 kts | 203° |
| 2026-04-30 19:47 | 56.38390 | 11.07731 | 33073 ft | 439 kts | 203° |
| 2026-04-30 19:47 | 56.35576 | 11.05649 | 33608 ft | 436 kts | 203° |
| 2026-04-30 19:48 | 56.32783 | 11.03587 | 34156 ft | 431 kts | 203° |
| 2026-04-30 19:48 | 56.30020 | 11.01552 | 34669 ft | 427 kts | 203° |
| 2026-04-30 19:48 | 56.27285 | 10.99542 | 35152 ft | 422 kts | 203° |
| 2026-04-30 19:48 | 56.24566 | 10.97545 | 35472 ft | 422 kts | 203° |
| 2026-04-30 19:49 | 56.21840 | 10.95546 | 35721 ft | 424 kts | 203° |
| 2026-04-30 19:49 | 56.16365 | 10.91539 | 36223 ft | 426 kts | 203° |
| 2026-04-30 19:49 | 56.13613 | 10.89530 | 36480 ft | 426 kts | 203° |
| 2026-04-30 19:50 | 56.10864 | 10.87526 | 36734 ft | 427 kts | 203° |
| 2026-04-30 19:50 | 56.08117 | 10.85526 | 36996 ft | 427 kts | 203° |
| 2026-04-30 19:50 | 56.05363 | 10.83525 | 37256 ft | 427 kts | 203° |
| 2026-04-30 19:50 | 56.02614 | 10.81530 | 37520 ft | 426 kts | 203° |
| 2026-04-30 19:51 | 55.99863 | 10.79536 | 37791 ft | 425 kts | 203° |
| 2026-04-30 19:51 | 55.97157 | 10.77579 | 38060 ft | 424 kts | 203° |
| 2026-04-30 19:51 | 55.94414 | 10.75597 | 38225 ft | 427 kts | 203° |
| 2026-04-30 19:51 | 55.91649 | 10.73603 | 38229 ft | 432 kts | 203° |
| 2026-04-30 19:52 | 55.86005 | 10.69542 | 38225 ft | 443 kts | 203° |
| 2026-04-30 19:52 | 55.80217 | 10.65393 | 38227 ft | 453 kts | 203° |
| 2026-04-30 19:53 | 55.74355 | 10.61204 | 38228 ft | 452 kts | 202° |
| 2026-04-30 19:53 | 55.71443 | 10.59128 | 38034 ft | 451 kts | 202° |
| 2026-04-30 19:53 | 55.68529 | 10.57055 | 37787 ft | 451 kts | 202° |
| 2026-04-30 19:54 | 55.65611 | 10.54982 | 37397 ft | 452 kts | 202° |
| 2026-04-30 19:54 | 55.62683 | 10.52905 | 37001 ft | 454 kts | 202° |
| 2026-04-30 19:54 | 55.59743 | 10.50823 | 36616 ft | 456 kts | 202° |
| 2026-04-30 19:54 | 55.56829 | 10.48764 | 36228 ft | 457 kts | 203° |
| 2026-04-30 19:55 | 55.53874 | 10.46679 | 35860 ft | 458 kts | 203° |
| 2026-04-30 19:55 | 55.50915 | 10.44593 | 35481 ft | 456 kts | 203° |
| 2026-04-30 19:55 | 55.47996 | 10.42541 | 35110 ft | 448 kts | 203° |
| 2026-04-30 19:55 | 55.45120 | 10.40522 | 34748 ft | 443 kts | 203° |
| 2026-04-30 19:56 | 55.42244 | 10.38498 | 34379 ft | 450 kts | 203° |
| 2026-04-30 19:56 | 55.39283 | 10.36420 | 33963 ft | 463 kts | 203° |
| 2026-04-30 19:56 | 55.36284 | 10.34323 | 33555 ft | 462 kts | 202° |
| 2026-04-30 19:56 | 55.33311 | 10.32251 | 33143 ft | 456 kts | 203° |
| 2026-04-30 19:57 | 55.30372 | 10.30206 | 32746 ft | 452 kts | 203° |
| 2026-04-30 19:57 | 55.27454 | 10.28179 | 32351 ft | 450 kts | 203° |
| 2026-04-30 19:57 | 55.24544 | 10.26159 | 31964 ft | 449 kts | 203° |
| 2026-04-30 19:57 | 55.21640 | 10.24145 | 31586 ft | 448 kts | 203° |
| 2026-04-30 19:58 | 55.18748 | 10.22143 | 31209 ft | 445 kts | 203° |
| 2026-04-30 19:58 | 55.15863 | 10.20148 | 30834 ft | 443 kts | 203° |
| 2026-04-30 19:58 | 55.13004 | 10.18175 | 30462 ft | 441 kts | 203° |
| 2026-04-30 19:58 | 55.10153 | 10.16208 | 30032 ft | 439 kts | 203° |
| 2026-04-30 19:59 | 55.07349 | 10.14277 | 29610 ft | 436 kts | 203° |
| 2026-04-30 19:59 | 55.04533 | 10.12339 | 29193 ft | 433 kts | 202° |
| 2026-04-30 19:59 | 54.98972 | 10.08520 | 28374 ft | 427 kts | 202° |
| 2026-04-30 20:00 | 54.96216 | 10.06631 | 27970 ft | 425 kts | 202° |
| 2026-04-30 20:00 | 54.93472 | 10.04753 | 27575 ft | 422 kts | 202° |
| 2026-04-30 20:00 | 54.90744 | 10.02889 | 27186 ft | 420 kts | 202° |
| 2026-04-30 20:00 | 54.88031 | 10.01037 | 26801 ft | 417 kts | 202° |
| 2026-04-30 20:01 | 54.82655 | 9.97377 | 26055 ft | 413 kts | 201° |
| 2026-04-30 20:01 | 54.79934 | 9.95840 | 25682 ft | 411 kts | 194° |
| 2026-04-30 20:01 | 54.77143 | 9.94823 | 25313 ft | 409 kts | 190° |
| 2026-04-30 20:02 | 54.71567 | 9.93070 | 24600 ft | 405 kts | 189° |
| 2026-04-30 20:02 | 54.68805 | 9.92196 | 24250 ft | 402 kts | 189° |
| 2026-04-30 20:03 | 54.64251 | 9.90734 | 23602 ft | 399 kts | 189° |
| 2026-04-30 20:03 | 54.61530 | 9.89859 | 23197 ft | 396 kts | 189° |
| 2026-04-30 20:03 | 54.57952 | 9.88714 | 22649 ft | 392 kts | 189° |
| 2026-04-30 20:03 | 54.56149 | 9.88138 | 22392 ft | 391 kts | 189° |
| 2026-04-30 20:04 | 54.53472 | 9.87305 | 21999 ft | 388 kts | 186° |
| 2026-04-30 20:04 | 54.50800 | 9.87238 | 21603 ft | 383 kts | 171° |
| 2026-04-30 20:04 | 54.48242 | 9.88315 | 21218 ft | 377 kts | 155° |
| 2026-04-30 20:05 | 54.43598 | 9.92171 | 20481 ft | 370 kts | 151° |
| 2026-04-30 20:05 | 54.41287 | 9.94120 | 20125 ft | 368 kts | 151° |
| 2026-04-30 20:05 | 54.36700 | 9.97883 | 19401 ft | 362 kts | 152° |
| 2026-04-30 20:06 | 54.34437 | 9.99712 | 19049 ft | 356 kts | 152° |
| 2026-04-30 20:06 | 54.32206 | 10.01509 | 18689 ft | 351 kts | 152° |
| 2026-04-30 20:06 | 54.30011 | 10.03276 | 18288 ft | 346 kts | 152° |
| 2026-04-30 20:06 | 54.27849 | 10.05015 | 17893 ft | 342 kts | 152° |
| 2026-04-30 20:07 | 54.25706 | 10.06740 | 17506 ft | 338 kts | 152° |
| 2026-04-30 20:07 | 54.23571 | 10.08459 | 17106 ft | 337 kts | 152° |
| 2026-04-30 20:07 | 54.19369 | 10.11839 | 16346 ft | 330 kts | 152° |
| 2026-04-30 20:08 | 54.17288 | 10.13512 | 15962 ft | 330 kts | 152° |
| 2026-04-30 20:08 | 54.15224 | 10.15169 | 15598 ft | 327 kts | 152° |
| 2026-04-30 20:08 | 54.13178 | 10.16809 | 15234 ft | 323 kts | 152° |
| 2026-04-30 20:08 | 54.11151 | 10.18433 | 14867 ft | 322 kts | 152° |
| 2026-04-30 20:09 | 54.09127 | 10.20053 | 14514 ft | 320 kts | 152° |
| 2026-04-30 20:09 | 54.07120 | 10.21657 | 14149 ft | 316 kts | 152° |
| 2026-04-30 20:09 | 54.03160 | 10.24820 | 13358 ft | 314 kts | 152° |
| 2026-04-30 20:10 | 53.99269 | 10.27920 | 12600 ft | 309 kts | 153° |
| 2026-04-30 20:10 | 53.97240 | 10.29174 | 12309 ft | 310 kts | 162° |
| 2026-04-30 20:10 | 53.95126 | 10.29923 | 12242 ft | 311 kts | 167° |
| 2026-04-30 20:11 | 53.90849 | 10.31236 | 12225 ft | 313 kts | 166° |
| 2026-04-30 20:11 | 53.88714 | 10.31919 | 12239 ft | 313 kts | 166° |
| 2026-04-30 20:11 | 53.86566 | 10.32538 | 12225 ft | 315 kts | 174° |
| 2026-04-30 20:12 | 53.82481 | 10.30001 | 12224 ft | 327 kts | 223° |
| 2026-04-30 20:12 | 53.81185 | 10.26855 | 12227 ft | 329 kts | 248° |
| 2026-04-30 20:12 | 53.80674 | 10.23093 | 12234 ft | 328 kts | 270° |
| 2026-04-30 20:13 | 53.81055 | 10.19370 | 12228 ft | 325 kts | 295° |
| 2026-04-30 20:13 | 53.82274 | 10.16221 | 12224 ft | 319 kts | 319° |
| 2026-04-30 20:13 | 53.84102 | 10.14221 | 12224 ft | 312 kts | 344° |
| 2026-04-30 20:13 | 53.86206 | 10.13438 | 12233 ft | 309 kts | 354° |
| 2026-04-30 20:14 | 53.88326 | 10.12884 | 12226 ft | 308 kts | 354° |
| 2026-04-30 20:14 | 53.90446 | 10.12342 | 12220 ft | 308 kts | 354° |
| 2026-04-30 20:14 | 53.92571 | 10.11805 | 12220 ft | 309 kts | 354° |
| 2026-04-30 20:14 | 53.94691 | 10.11275 | 12223 ft | 309 kts | 354° |
| 2026-04-30 20:15 | 53.96822 | 10.10745 | 12223 ft | 309 kts | 354° |
| 2026-04-30 20:15 | 53.98945 | 10.10260 | 12220 ft | 307 kts | 359° |
| 2026-04-30 20:15 | 54.01049 | 10.10616 | 12228 ft | 302 kts | 20° |
| 2026-04-30 20:15 | 54.02888 | 10.12232 | 12237 ft | 297 kts | 42° |
| 2026-04-30 20:16 | 54.04148 | 10.14956 | 12237 ft | 295 kts | 64° |
| 2026-04-30 20:16 | 54.04681 | 10.18294 | 12222 ft | 295 kts | 88° |
| 2026-04-30 20:16 | 54.04309 | 10.21728 | 12228 ft | 298 kts | 112° |
| 2026-04-30 20:16 | 54.03095 | 10.24582 | 12225 ft | 303 kts | 137° |
| 2026-04-30 20:17 | 54.01243 | 10.26332 | 12241 ft | 310 kts | 161° |
| 2026-04-30 20:17 | 53.99139 | 10.27179 | 12454 ft | 313 kts | 165° |
| 2026-04-30 20:17 | 53.97002 | 10.27964 | 12534 ft | 314 kts | 165° |
| 2026-04-30 20:17 | 53.94864 | 10.28735 | 12506 ft | 314 kts | 166° |
| 2026-04-30 20:18 | 53.92702 | 10.28754 | 12472 ft | 319 kts | 189° |
| 2026-04-30 20:18 | 53.90646 | 10.27277 | 12472 ft | 326 kts | 213° |
| 2026-04-30 20:18 | 53.89074 | 10.24519 | 12476 ft | 329 kts | 238° |
| 2026-04-30 20:18 | 53.88253 | 10.20907 | 12481 ft | 330 kts | 262° |
| 2026-04-30 20:19 | 53.88332 | 10.17051 | 12482 ft | 327 kts | 286° |
| 2026-04-30 20:19 | 53.89289 | 10.13609 | 12482 ft | 323 kts | 311° |
| 2026-04-30 20:19 | 53.90951 | 10.11147 | 12474 ft | 316 kts | 335° |
| 2026-04-30 20:19 | 53.92997 | 10.09883 | 12481 ft | 311 kts | 351° |
| 2026-04-30 20:20 | 53.95132 | 10.09347 | 12482 ft | 309 kts | 359° |
| 2026-04-30 20:20 | 53.97245 | 10.09251 | 12478 ft | 307 kts | 4° |
| 2026-04-30 20:20 | 53.99374 | 10.09422 | 12466 ft | 305 kts | 13° |
| 2026-04-30 20:20 | 54.01328 | 10.10671 | 12460 ft | 299 kts | 36° |
| 2026-04-30 20:21 | 54.02786 | 10.13130 | 12476 ft | 296 kts | 59° |
| 2026-04-30 20:21 | 54.03505 | 10.16376 | 12457 ft | 296 kts | 82° |
| 2026-04-30 20:21 | 54.03377 | 10.19864 | 12237 ft | 298 kts | 105° |
| 2026-04-30 20:21 | 54.02394 | 10.22954 | 11991 ft | 300 kts | 129° |
| 2026-04-30 20:22 | 54.00784 | 10.25251 | 11741 ft | 303 kts | 141° |
| 2026-04-30 20:22 | 53.99075 | 10.27325 | 11505 ft | 301 kts | 142° |
| 2026-04-30 20:22 | 53.97374 | 10.29393 | 11445 ft | 300 kts | 142° |
| 2026-04-30 20:22 | 53.95459 | 10.30846 | 11445 ft | 308 kts | 166° |
| 2026-04-30 20:23 | 53.93308 | 10.30840 | 11444 ft | 315 kts | 190° |
| 2026-04-30 20:23 | 53.91325 | 10.29359 | 11446 ft | 319 kts | 213° |
| 2026-04-30 20:23 | 53.89612 | 10.26948 | 11447 ft | 321 kts | 224° |
| 2026-04-30 20:23 | 53.88253 | 10.23936 | 11429 ft | 323 kts | 241° |
| 2026-04-30 20:24 | 53.87432 | 10.20390 | 11440 ft | 324 kts | 256° |
| 2026-04-30 20:24 | 53.87033 | 10.16636 | 11444 ft | 324 kts | 264° |
| 2026-04-30 20:24 | 53.87075 | 10.12858 | 11445 ft | 321 kts | 284° |
| 2026-04-30 20:24 | 53.87973 | 10.09440 | 11441 ft | 317 kts | 309° |
| 2026-04-30 20:25 | 53.91620 | 10.05889 | 11441 ft | 305 kts | 359° |
| 2026-04-30 20:25 | 53.93700 | 10.06225 | 11439 ft | 300 kts | 20° |
| 2026-04-30 20:26 | 53.96923 | 10.10313 | 11437 ft | 293 kts | 60° |
| 2026-04-30 20:26 | 53.97784 | 10.16947 | 11433 ft | 292 kts | 89° |
| 2026-04-30 20:26 | 53.97781 | 10.20359 | 11441 ft | 292 kts | 89° |
| 2026-04-30 20:27 | 53.97802 | 10.27262 | 11440 ft | 292 kts | 88° |
| 2026-04-30 20:27 | 53.97024 | 10.33951 | 11447 ft | 296 kts | 119° |
| 2026-04-30 20:28 | 53.93725 | 10.38047 | 11448 ft | 308 kts | 165° |
| 2026-04-30 20:28 | 53.89526 | 10.36813 | 11439 ft | 320 kts | 212° |
| 2026-04-30 20:29 | 53.87036 | 10.30693 | 11435 ft | 324 kts | 250° |
| 2026-04-30 20:30 | 53.82227 | 10.23798 | 11433 ft | 313 kts | 181° |
| 2026-04-30 20:30 | 53.77076 | 10.28748 | 10792 ft | 291 kts | 119° |
| 2026-04-30 20:31 | 53.73746 | 10.36471 | 10027 ft | 259 kts | 149° |
| 2026-04-30 20:32 | 53.68947 | 10.34373 | 9269 ft | 267 kts | 229° |
| 2026-04-30 20:32 | 53.66631 | 10.29524 | 8757 ft | 264 kts | 230° |
| 2026-04-30 20:33 | 53.65487 | 10.27100 | 8511 ft | 263 kts | 230° |
| 2026-04-30 20:33 | 53.63227 | 10.22278 | 8009 ft | 261 kts | 229° |
| 2026-04-30 20:33 | 53.62105 | 10.19871 | 7763 ft | 260 kts | 229° |
| 2026-04-30 20:34 | 53.59893 | 10.15106 | 7457 ft | 258 kts | 229° |
| 2026-04-30 20:34 | 53.57680 | 10.10324 | 7454 ft | 258 kts | 229° |
| 2026-04-30 20:35 | 53.56578 | 10.07936 | 7455 ft | 259 kts | 229° |
| 2026-04-30 20:35 | 53.55490 | 10.05579 | 7432 ft | 257 kts | 229° |
| 2026-04-30 20:35 | 53.53310 | 10.00839 | 6838 ft | 255 kts | 229° |
| 2026-04-30 20:36 | 53.52228 | 9.98483 | 6461 ft | 253 kts | 229° |
| 2026-04-30 20:36 | 53.51156 | 9.96148 | 6105 ft | 251 kts | 229° |
| 2026-04-30 20:36 | 53.49043 | 9.91553 | 5401 ft | 246 kts | 229° |
| 2026-04-30 20:37 | 53.47927 | 9.89413 | 5092 ft | 241 kts | 223° |
| 2026-04-30 20:37 | 53.46771 | 9.87378 | 4995 ft | 243 kts | 223° |
| 2026-04-30 20:37 | 53.45618 | 9.85302 | 4997 ft | 242 kts | 225° |
| 2026-04-30 20:37 | 53.44496 | 9.83191 | 4993 ft | 243 kts | 226° |
| 2026-04-30 20:38 | 53.43390 | 9.81041 | 4993 ft | 243 kts | 227° |
| 2026-04-30 20:38 | 53.42301 | 9.78880 | 4996 ft | 243 kts | 227° |
| 2026-04-30 20:38 | 53.41216 | 9.76708 | 4985 ft | 243 kts | 227° |
| 2026-04-30 20:39 | 53.39045 | 9.72350 | 4987 ft | 243 kts | 227° |
| 2026-04-30 20:39 | 53.37961 | 9.70177 | 4985 ft | 243 kts | 227° |
| 2026-04-30 20:39 | 53.36890 | 9.68035 | 4983 ft | 243 kts | 227° |
| 2026-04-30 20:40 | 53.34721 | 9.63702 | 4976 ft | 242 kts | 227° |
| 2026-04-30 20:40 | 53.33635 | 9.61539 | 4983 ft | 243 kts | 227° |
| 2026-04-30 20:40 | 53.32689 | 9.59208 | 4976 ft | 245 kts | 248° |
| 2026-04-30 20:41 | 53.33156 | 9.53754 | 4973 ft | 247 kts | 310° |
| 2026-04-30 20:41 | 53.34507 | 9.52049 | 4972 ft | 243 kts | 342° |
| 2026-04-30 20:41 | 53.36151 | 9.51736 | 4979 ft | 237 kts | 14° |
| 2026-04-30 20:41 | 53.37714 | 9.52582 | 4980 ft | 235 kts | 24° |
| 2026-04-30 20:42 | 53.39217 | 9.53562 | 4983 ft | 235 kts | 24° |
| 2026-04-30 20:42 | 53.40706 | 9.54652 | 4978 ft | 231 kts | 36° |
| 2026-04-30 20:42 | 53.42897 | 9.58514 | 4985 ft | 228 kts | 52° |
| 2026-04-30 20:43 | 53.43924 | 9.60546 | 4989 ft | 229 kts | 52° |
| 2026-04-30 20:43 | 53.44949 | 9.62588 | 4989 ft | 228 kts | 52° |
| 2026-04-30 20:43 | 53.45969 | 9.64625 | 4989 ft | 228 kts | 51° |
| 2026-04-30 20:44 | 53.48002 | 9.68670 | 4525 ft | 227 kts | 51° |
| 2026-04-30 20:44 | 53.49020 | 9.70699 | 4134 ft | 228 kts | 51° |
| 2026-04-30 20:44 | 53.51061 | 9.74777 | 3426 ft | 226 kts | 50° |
| 2026-04-30 20:45 | 53.52943 | 9.78538 | 3200 ft | 190 kts | 50° |
| 2026-04-30 20:45 | 53.53774 | 9.80198 | 2862 ft | 183 kts | 50° |
| 2026-04-30 20:45 | 53.54588 | 9.81822 | 2391 ft | 179 kts | 50° |
| 2026-04-30 20:46 | 53.56967 | 9.86581 | 1654 ft | 163 kts | 50° |
| 2026-04-30 20:46 | 53.57661 | 9.87973 | 1455 ft | 149 kts | 50° |
| 2026-04-30 20:47 | 53.58955 | 9.90581 | 930 ft | 142 kts | 51° |
| 2026-04-30 20:47 | 53.59610 | 9.91912 | 971 ft | 150 kts | 50° |
| 2026-04-30 20:48 | 53.60921 | 9.94575 | 337 ft | 143 kts | 49° |
| 2026-04-30 20:48 | 53.61560 | 9.95863 | 160 ft | 138 kts | 48° |
| 2026-04-30 20:48 | 53.62141 | 9.97013 | 44 ft | 120 kts | 50° |
| 2026-04-30 20:48 | 53.62517 | 9.97751 | 44 ft | 50 kts | 52° |
| 2026-04-30 20:49 | 53.62660 | 9.98056 | 46 ft | 19 kts | 51° |
| 2026-04-30 20:49 | 53.62725 | 9.98189 | 48 ft | 24 kts | 51° |
| 2026-04-30 20:49 | 53.62735 | 9.98371 | 47 ft | 18 kts | 139° |
| 2026-04-30 20:50 | 53.62677 | 9.98452 | 46 ft | 7 kts | 133° |
| 2026-04-30 20:50 | 53.62687 | 9.98545 | 43 ft | 11 kts | 54° |
| 2026-04-30 20:50 | 53.62749 | 9.98670 | 46 ft | 16 kts | 50° |
| 2026-04-30 20:50 | 53.62833 | 9.98839 | 46 ft | 21 kts | 50° |
| 2026-04-30 20:51 | 53.62935 | 9.99047 | 47 ft | 25 kts | 50° |
| 2026-04-30 20:51 | 53.63084 | 9.99362 | 47 ft | 0 kts | 56° |
| 2026-04-30 20:53 | 53.63105 | 9.99415 | 47 ft | 16 kts | 56° |
| 2026-04-30 20:53 | 53.63183 | 9.99593 | 47 ft | 21 kts | 50° |
| 2026-04-30 20:54 | 53.63221 | 9.99668 | 48 ft | 0 kts | 47° |
| 2026-04-30 20:56 | 53.63230 | 9.99689 | 48 ft | 6 kts | 65° |
| 2026-04-30 20:56 | 53.63192 | 9.99789 | 48 ft | 17 kts | 154° |
| 2026-04-30 20:56 | 53.62915 | 10.00026 | 44 ft | 17 kts | 155° |
| 2026-04-30 20:57 | 53.62806 | 10.00103 | 44 ft | 15 kts | 153° |
| 2026-04-30 20:57 | 53.62749 | 10.00151 | 43 ft | 5 kts | 154° |
| 2026-04-30 20:57 | 53.62747 | 10.00187 | 43 ft | 2 kts | 64° |
| 2026-04-30 20:58 | 53.62773 | 10.00277 | 42 ft | 0 kts | 64° |